Time;durP1;ratioP1;P1;durP2;ratioP2;P2;SDS_P1;SDS_P2;PMS_P1;PMS_P2;Temp;Humidity;BMP_temperature;BMP_pressure;BME280_temperature;BME280_humidity;BME280_pressure;Samples;Min_cycle;Max_cycle;Signal;HPM_P1;HPM_P2
2022/07/08 00:01:01;;;;;;;;;;;;;;;18.31;52.01;100884.69;1088351;54;19954;-83
2022/07/08 00:02:03;;;;;;;;;;;;;;;18.33;52.06;100884.50;1088392;54;19942;-80
2022/07/08 00:03:06;;;;;;;;;;;;;;;18.26;52.24;100884.38;1088427;54;19935;-81
2022/07/08 00:04:07;;;;;;;;;;;;;;;18.29;52.25;100883.16;1088472;54;19926;-81
2022/07/08 00:05:11;;;;;;;;;;;;;;;18.22;52.28;100878.47;1088447;54;19951;-81
2022/07/08 00:06:12;;;;;;;;;;;;;;;18.14;52.54;100883.88;1097632;39;20577;-83
2022/07/08 00:07:16;;;;;;;;;;;;;;;18.12;52.45;100885.94;1088441;54;19943;-82
2022/07/08 00:08:19;;;;;;;;;;;;;;;18.08;52.56;100879.19;1088478;54;19942;-81
2022/07/08 00:09:23;;;;;;;;;;;;;;;18.05;52.91;100877.69;1088386;54;19926;-80
2022/07/08 00:10:29;;;;;;;;;;;;;;;18.03;52.83;100879.69;1087990;54;19934;-80
2022/07/08 00:11:30;;;;;;;;;;;;;;;18.06;52.90;100882.06;1088007;54;19935;-80
2022/07/08 00:12:34;;;;;;;;;;;;;;;18.07;52.88;100874.78;1088299;54;19942;-79
2022/07/08 00:13:35;;;;;;;;;;;;;;;18.10;52.81;100871.75;1088352;54;19950;-81
2022/07/08 00:14:39;;;;;;;;;;;;;;;18.04;52.71;100875.97;1088464;47;19934;-81
2022/07/08 00:15:40;;;;;;;;;;;;;;;18.08;52.68;100887.28;1088454;54;19927;-82
2022/07/08 00:16:44;;;;;;;;;;;;;;;18.08;52.64;100879.19;1088463;54;19943;-81
2022/07/08 00:17:45;;;;;;;;;;;;;;;18.06;52.50;100881.22;1088422;54;19951;-80
2022/07/08 00:18:49;;;;;;;;;;;;;;;18.05;52.53;100876.81;1088432;54;19927;-81
2022/07/08 00:19:50;;;;;;;;;;;;;;;18.01;52.62;100880.91;1088400;54;19927;-82
2022/07/08 00:20:54;;;;;;;;;;;;;;;17.95;52.89;100884.28;1088382;54;19950;-82
2022/07/08 00:21:55;;;;;;;;;;;;;;;17.96;52.93;100885.94;1088399;54;19943;-81
2022/07/08 00:23:00;;;;;;;;;;;;;;;17.97;52.83;100890.38;1088469;54;19934;-81
2022/07/08 00:24:01;;;;;;;;;;;;;;;17.93;52.92;100898.81;1088439;54;19943;-78
2022/07/08 00:25:05;;;;;;;;;;;;;;;17.87;52.75;100899.47;1088338;54;19977;-81
2022/07/08 00:26:10;;;;;;;;;;;;;;;17.73;53.21;100905.59;1088448;54;19930;-83
2022/07/08 00:27:13;;;;;;;;;;;;;;;17.66;53.43;100899.19;1088397;54;19946;-83
2022/07/08 00:28:15;;;;;;;;;;;;;;;17.56;53.48;100899.38;1088048;54;19950;-79
2022/07/08 00:29:19;;;;;;;;;;;;;;;17.45;53.73;100914.06;1091395;39;20689;-79
2022/07/08 00:30:20;;;;;;;;;;;;;;;17.42;53.71;100907.16;1088268;54;19943;-80
2022/07/08 00:31:24;;;;;;;;;;;;;;;17.39;54.14;100912.88;1088416;54;19934;-82
2022/07/08 00:32:25;;;;;;;;;;;;;;;17.30;54.24;100914.72;1088459;54;19927;-82
2022/07/08 00:33:28;;;;;;;;;;;;;;;17.27;54.08;100908.81;1088462;54;20002;-83
2022/07/08 00:34:30;;;;;;;;;;;;;;;17.21;54.33;100904.94;1088415;54;19950;-78
2022/07/08 00:35:33;;;;;;;;;;;;;;;17.23;53.91;100902.91;1088451;54;19927;-77
2022/07/08 00:36:35;;;;;;;;;;;;;;;17.20;54.31;100919.44;1088445;54;19943;-77
2022/07/08 00:37:39;;;;;;;;;;;;;;;17.22;54.06;100913.91;1088452;54;19954;-77
2022/07/08 00:38:40;;;;;;;;;;;;;;;17.29;54.01;100918.44;1088276;54;19950;-77
2022/07/08 00:39:44;;;;;;;;;;;;;;;17.33;53.72;100916.28;1088377;54;19983;-77
2022/07/08 00:40:45;;;;;;;;;;;;;;;17.29;53.80;100915.72;1088885;46;19926;-78
2022/07/08 00:41:51;;;;;;;;;;;;;;;17.36;53.55;100917.78;1088401;54;19938;-77
2022/07/08 00:42:53;;;;;;;;;;;;;;;17.37;53.24;100924.88;1088440;54;19931;-76
2022/07/08 00:43:56;;;;;;;;;;;;;;;17.35;53.69;100919.63;1088381;54;19942;-75
2022/07/08 00:45:00;;;;;;;;;;;;;;;17.35;53.45;100916.94;1088189;54;19943;-75
2022/07/08 00:46:02;;;;;;;;;;;;;;;17.40;53.34;100921.81;1087974;54;19942;-75
2022/07/08 00:47:06;;;;;;;;;;;;;;;17.41;53.33;100923.53;1088514;46;19942;-75
2022/07/08 00:48:07;;;;;;;;;;;;;;;17.30;53.27;100919.31;1088293;54;19949;-76
2022/07/08 00:49:11;;;;;;;;;;;;;;;17.29;53.26;100918.44;1088376;54;20026;-76
2022/07/08 00:50:12;;;;;;;;;;;;;;;17.27;53.42;100931.28;1088822;39;20633;-77
2022/07/08 00:51:18;;;;;;;;;;;;;;;17.20;53.55;100922.16;1088385;54;19983;-75
2022/07/08 00:52:19;;;;;;;;;;;;;;;17.12;53.67;100927.53;1091360;39;20580;-75
2022/07/08 00:53:23;;;;;;;;;;;;;;;16.99;54.25;100928.88;1088667;46;19942;-76
2022/07/08 00:54:25;;;;;;;;;;;;;;;16.93;54.17;100931.38;1090169;46;19943;-76
2022/07/08 00:55:29;;;;;;;;;;;;;;;16.92;54.70;100926.97;1088422;54;19942;-75
2022/07/08 00:56:30;;;;;;;;;;;;;;;16.94;54.46;100939.31;1088337;54;19943;-76
2022/07/08 00:57:38;;;;;;;;;;;;;;;16.84;54.94;100933.19;1088411;54;19938;-76
2022/07/08 00:58:40;;;;;;;;;;;;;;;16.80;54.78;100935.38;1088434;54;19942;-76
2022/07/08 00:59:44;;;;;;;;;;;;;;;16.78;54.76;100936.56;1088357;54;19998;-78
2022/07/08 01:00:45;;;;;;;;;;;;;;;16.66;55.34;100939.56;1088381;54;19954;-80
2022/07/08 01:01:49;;;;;;;;;;;;;;;16.73;54.95;100944.28;1088384;54;19943;-77
2022/07/08 01:02:51;;;;;;;;;;;;;;;16.66;55.35;100941.41;1088200;54;19962;-77
2022/07/08 01:03:55;;;;;;;;;;;;;;;16.63;55.33;100945.25;1087995;54;19950;-77
2022/07/08 01:04:56;;;;;;;;;;;;;;;16.58;55.65;100946.78;1087893;54;19949;-77
2022/07/08 01:06:00;;;;;;;;;;;;;;;16.51;55.85;100944.72;1088479;46;19965;-77
2022/07/08 01:07:02;;;;;;;;;;;;;;;16.50;55.80;100944.88;1088378;54;19938;-77
2022/07/08 01:08:06;;;;;;;;;;;;;;;16.55;55.55;100944.41;1088430;54;19950;-78
2022/07/08 01:09:10;;;;;;;;;;;;;;;16.55;55.88;100944.41;1088355;54;19942;-78
2022/07/08 01:10:11;;;;;;;;;;;;;;;16.58;55.44;100942.22;1088537;46;19942;-77
2022/07/08 01:13:43;;;;;;;;;;;;;;;16.78;54.83;100926.59;1085049;54;19955;-78
2022/07/08 01:14:49;;;;;;;;;;;;;;;16.80;55.10;100937.25;1085604;54;19946;-77
2022/07/08 01:15:52;;;;;;;;;;;;;;;16.82;54.69;100937.91;1085727;39;20309;-79
2022/07/08 01:16:54;;;;;;;;;;;;;;;16.81;54.86;100933.53;1085433;54;20484;-79
2022/07/08 01:17:59;;;;;;;;;;;;;;;16.82;54.81;100933.38;1085525;54;19954;-79
2022/07/08 01:19:00;;;;;;;;;;;;;;;16.81;54.75;100936.25;1085344;54;19934;-80
2022/07/08 01:20:16;;;;;;;;;;;;;;;16.79;54.99;100932.84;1085265;54;19939;-78
2022/07/08 01:21:20;;;;;;;;;;;;;;;16.72;55.09;100931.81;1085275;54;19968;-79
2022/07/08 01:22:24;;;;;;;;;;;;;;;16.65;55.56;100937.84;1085037;54;19969;-79
2022/07/08 01:23:25;;;;;;;;;;;;;;;16.64;55.28;100936.16;1085433;54;19954;-79
2022/07/08 01:24:29;;;;;;;;;;;;;;;16.50;55.50;100944.88;1086050;39;20344;-78
2022/07/08 01:25:30;;;;;;;;;;;;;;;16.47;55.83;100945.19;1085693;54;20015;-77
2022/07/08 01:26:34;;;;;;;;;;;;;;;16.46;55.64;100935.41;1085600;54;20512;-78
2022/07/08 01:27:35;;;;;;;;;;;;;;;16.48;55.82;100941.50;1085263;54;19934;-78
2022/07/08 01:28:40;;;;;;;;;;;;;;;16.41;55.79;100935.06;1085417;54;19950;-78
2022/07/08 01:29:42;;;;;;;;;;;;;;;16.40;55.90;100941.47;1085419;54;19969;-78
2022/07/08 01:30:46;;;;;;;;;;;;;;;16.30;56.21;100939.72;1085722;47;20461;-79
2022/07/08 01:31:50;;;;;;;;;;;;;;;16.28;56.10;100940.91;1085562;54;19946;-79
2022/07/08 01:32:54;;;;;;;;;;;;;;;16.22;56.15;100943.22;1085596;54;20429;-79
2022/07/08 01:33:58;;;;;;;;;;;;;;;16.22;56.29;100953.19;1085652;54;19953;-78
2022/07/08 01:34:59;;;;;;;;;;;;;;;16.18;56.25;100951.78;1085641;54;19954;-77
2022/07/08 01:36:03;;;;;;;;;;;;;;;16.06;56.69;100943.97;1085887;54;19946;-79
2022/07/08 01:37:06;;;;;;;;;;;;;;;15.99;56.86;100942.09;1085461;54;19950;-78
2022/07/08 01:38:10;;;;;;;;;;;;;;;15.99;56.77;100951.00;1085456;54;19942;-79
2022/07/08 01:39:11;;;;;;;;;;;;;;;15.93;56.94;100951.66;1084692;54;19951;-78
2022/07/08 01:40:15;;;;;;;;;;;;;;;15.88;57.05;100948.56;1085084;54;19946;-78
2022/07/08 01:41:16;;;;;;;;;;;;;;;15.80;57.37;100954.72;1085062;54;19947;-78
2022/07/08 01:42:21;;;;;;;;;;;;;;;15.80;57.21;100960.13;1085592;54;19961;-79
2022/07/08 01:43:25;;;;;;;;;;;;;;;15.78;57.40;100956.72;1085508;54;20893;-77
2022/07/08 01:44:26;;;;;;;;;;;;;;;15.77;57.68;100949.63;1085772;39;20341;-77
2022/07/08 01:45:29;;;;;;;;;;;;;;;15.75;57.80;100954.34;1085393;54;19953;-78
2022/07/08 01:46:31;;;;;;;;;;;;;;;15.78;57.47;100954.03;1086487;46;19992;-78
2022/07/08 01:47:34;;;;;;;;;;;;;;;15.77;57.60;100956.91;1087143;54;19939;-78
2022/07/08 01:48:37;;;;;;;;;;;;;;;15.81;57.40;100960.94;1088399;54;19935;-79
2022/07/08 01:49:41;;;;;;;;;;;;;;;15.80;57.29;100964.66;1088419;54;19938;-80
2022/07/08 01:50:42;;;;;;;;;;;;;;;15.77;57.41;100962.28;1089903;46;19935;-79
2022/07/08 01:51:46;;;;;;;;;;;;;;;15.77;57.67;100968.50;1088315;54;19945;-79
2022/07/08 01:52:51;;;;;;;;;;;;;;;15.73;57.62;100970.69;1088289;54;19946;-79
2022/07/08 01:53:54;;;;;;;;;;;;;;;15.72;57.55;100968.97;1088429;54;19949;-78
2022/07/08 01:54:56;;;;;;;;;;;;;;;15.72;57.73;100973.53;1088433;54;19950;-79
2022/07/08 01:55:59;;;;;;;;;;;;;;;15.69;58.06;100976.53;1090838;46;19942;-79
2022/07/08 01:57:13;;;;;;;;;;;;;;;15.67;58.20;100973.13;1087424;54;19946;-79
2022/07/08 01:58:17;;;;;;;;;;;;;;;15.74;57.57;100979.59;1086401;54;19950;-79
2022/07/08 01:59:18;;;;;;;;;;;;;;;15.78;57.65;100985.50;1086679;54;19950;-79
2022/07/08 02:00:22;;;;;;;;;;;;;;;15.79;57.58;100980.00;1086742;54;19977;-79
2022/07/08 02:01:23;;;;;;;;;;;;;;;15.75;57.58;100974.06;1086512;54;19954;-80
2022/07/08 02:02:27;;;;;;;;;;;;;;;15.77;57.85;100978.47;1087909;39;20336;-79
2022/07/08 02:03:30;;;;;;;;;;;;;;;15.78;57.46;100990.91;1087975;54;19934;-79
2022/07/08 02:04:32;;;;;;;;;;;;;;;15.74;57.56;100984.97;1088117;54;19943;-79
2022/07/08 02:05:37;;;;;;;;;;;;;;;15.74;57.79;100977.75;1090703;46;19951;-80
2022/07/08 02:06:38;;;;;;;;;;;;;;;15.77;57.57;100979.28;1088903;46;19945;-79
2022/07/08 02:07:42;;;;;;;;;;;;;;;15.75;57.35;100984.00;1087775;54;19999;-79
2022/07/08 02:08:46;;;;;;;;;;;;;;;15.74;57.71;100982.28;1087430;54;19951;-79
2022/07/08 02:09:49;;;;;;;;;;;;;;;15.74;57.64;100987.69;1087750;46;20006;-79
2022/07/08 02:12:20;;;;;;;;;;;;;;;15.74;57.61;100991.25;1087472;54;19973;-78
2022/07/08 02:13:24;;;;;;;;;;;;;;;15.74;57.51;100991.25;1086268;54;20002;-79
2022/07/08 02:14:25;;;;;;;;;;;;;;;15.70;57.83;100997.94;1085386;54;19950;-79
2022/07/08 02:15:29;;;;;;;;;;;;;;;15.70;57.70;100991.72;1085886;46;19946;-79
2022/07/08 02:16:30;;;;;;;;;;;;;;;15.69;57.83;100992.72;1087729;39;20320;-78
2022/07/08 02:17:35;;;;;;;;;;;;;;;15.64;58.00;100995.88;1087961;54;19946;-79
2022/07/08 02:18:38;;;;;;;;;;;;;;;15.62;57.95;100989.78;1087865;54;19938;-79
2022/07/08 02:19:42;;;;;;;;;;;;;;;15.54;58.43;100992.41;1087921;54;20027;-79
2022/07/08 02:20:45;;;;;;;;;;;;;;;15.51;58.40;100987.31;1088904;47;20010;-80
2022/07/08 02:21:48;;;;;;;;;;;;;;;15.48;58.41;100984.94;1091215;39;20446;-80
2022/07/08 02:22:51;;;;;;;;;;;;;;;15.47;58.55;100991.34;1089588;46;19938;-78
2022/07/08 02:23:57;;;;;;;;;;;;;;;15.43;58.49;100988.94;1087521;54;19942;-78
2022/07/08 02:24:58;;;;;;;;;;;;;;;15.42;58.68;100986.41;1087290;54;19938;-78
2022/07/08 02:26:03;;;;;;;;;;;;;;;15.38;58.69;100988.56;1089565;39;20499;-79
2022/07/08 02:27:04;;;;;;;;;;;;;;;15.34;58.84;100987.16;1087029;54;19970;-78
2022/07/08 02:28:08;;;;;;;;;;;;;;;15.30;58.96;100988.50;1086600;54;20079;-78
2022/07/08 02:29:09;;;;;;;;;;;;;;;15.23;59.43;100990.94;1086216;54;19947;-78
2022/07/08 02:30:14;;;;;;;;;;;;;;;15.29;58.88;100994.88;1086705;54;19986;-79
2022/07/08 02:31:15;;;;;;;;;;;;;;;15.28;59.14;100995.88;1086734;54;19950;-79
2022/07/08 02:32:19;;;;;;;;;;;;;;;15.25;59.02;101001.53;1086554;54;19947;-78
2022/07/08 02:33:20;;;;;;;;;;;;;;;15.25;59.21;100998.84;1086650;54;19946;-78
2022/07/08 02:34:24;;;;;;;;;;;;;;;15.23;59.21;100992.75;1088342;54;19938;-77
2022/07/08 02:35:25;;;;;;;;;;;;;;;15.21;59.20;101000.19;1088237;54;19926;-78
2022/07/08 02:36:29;;;;;;;;;;;;;;;15.18;59.43;101000.47;1087638;54;19950;-79
2022/07/08 02:37:30;;;;;;;;;;;;;;;15.16;59.50;100994.38;1086942;54;19953;-79
2022/07/08 02:38:34;;;;;;;;;;;;;;;15.07;59.82;100997.00;1086227;54;19946;-78
2022/07/08 02:39:37;;;;;;;;;;;;;;;15.08;59.97;101006.75;1086327;39;20394;-78
2022/07/08 02:40:41;;;;;;;;;;;;;;;15.05;60.00;101000.84;1085784;54;19946;-77
2022/07/08 02:41:42;;;;;;;;;;;;;;;15.04;59.73;100999.97;1085739;54;19966;-78
2022/07/08 02:42:46;;;;;;;;;;;;;;;15.01;60.37;101008.38;1085690;54;19981;-78
2022/07/08 02:43:47;;;;;;;;;;;;;;;14.99;60.16;101015.75;1085944;54;19938;-78
2022/07/08 02:44:51;;;;;;;;;;;;;;;15.04;60.11;101016.13;1090009;39;20458;-79
2022/07/08 02:45:52;;;;;;;;;;;;;;;15.10;59.59;101017.38;1085908;54;19947;-79
2022/07/08 02:46:56;;;;;;;;;;;;;;;15.07;60.05;101017.66;1086369;54;20452;-78
2022/07/08 02:47:58;;;;;;;;;;;;;;;15.09;59.63;101011.16;1086388;54;19966;-79
2022/07/08 02:49:02;;;;;;;;;;;;;;;15.11;59.73;101017.22;1086249;54;19962;-78
2022/07/08 02:50:04;;;;;;;;;;;;;;;15.10;59.71;101018.25;1085943;54;19946;-78
2022/07/08 02:51:08;;;;;;;;;;;;;;;15.07;59.74;101017.66;1086080;54;20433;-79
2022/07/08 02:52:16;;;;;;;;;;;;;;;15.03;60.22;101017.13;1085937;54;19946;-79
2022/07/08 02:53:20;;;;;;;;;;;;;;;15.06;59.85;101022.22;1085994;54;20444;-78
2022/07/08 02:54:21;;;;;;;;;;;;;;;15.08;59.78;101022.91;1086844;39;20310;-79
2022/07/08 02:55:27;;;;;;;;;;;;;;;15.11;59.93;101024.47;1086998;54;19951;-79
2022/07/08 02:56:29;;;;;;;;;;;;;;;15.13;59.68;101015.22;1088000;54;19950;-79
2022/07/08 02:57:33;;;;;;;;;;;;;;;15.17;59.53;101017.63;1088124;54;19962;-79
2022/07/08 02:58:34;;;;;;;;;;;;;;;15.20;59.24;101018.16;1087863;54;19951;-79
2022/07/08 02:59:38;;;;;;;;;;;;;;;15.21;59.16;101021.72;1089027;47;19939;-79
2022/07/08 03:00:39;;;;;;;;;;;;;;;15.24;59.46;101016.88;1087581;47;19938;-79
2022/07/08 03:01:43;;;;;;;;;;;;;;;15.25;59.33;101020.41;1087401;47;19954;-78
2022/07/08 03:02:44;;;;;;;;;;;;;;;15.24;58.92;101029.47;1086653;54;19945;-79
2022/07/08 03:03:48;;;;;;;;;;;;;;;15.23;59.31;101019.69;1086230;54;19946;-79
2022/07/08 03:04:49;;;;;;;;;;;;;;;15.19;59.51;101023.72;1085852;54;19973;-78
2022/07/08 03:05:53;;;;;;;;;;;;;;;15.14;59.31;101021.47;1087048;39;20339;-79
2022/07/08 03:06:54;;;;;;;;;;;;;;;15.12;59.56;101018.91;1086292;54;19939;-78
2022/07/08 03:07:58;;;;;;;;;;;;;;;15.11;59.24;101019.91;1086399;54;20464;-78
2022/07/08 03:08:59;;;;;;;;;;;;;;;15.12;59.39;101029.69;1085852;54;19946;-77
2022/07/08 03:10:03;;;;;;;;;;;;;;;15.12;59.35;101021.59;1085712;54;20756;-78
2022/07/08 03:11:06;;;;;;;;;;;;;;;15.13;59.10;101028.69;1085941;54;19946;-78
2022/07/08 03:12:11;;;;;;;;;;;;;;;15.13;58.96;101027.84;1086077;54;19938;-79
2022/07/08 03:13:12;;;;;;;;;;;;;;;15.15;58.95;101030.38;1086419;54;19950;-78
2022/07/08 03:14:15;;;;;;;;;;;;;;;15.16;58.86;101032.09;1086514;54;19954;-79
2022/07/08 03:15:17;;;;;;;;;;;;;;;15.15;58.94;101025.00;1085370;54;19951;-79
2022/07/08 03:16:20;;;;;;;;;;;;;;;15.13;59.11;101023.31;1085331;54;19995;-79
2022/07/08 03:17:22;;;;;;;;;;;;;;;15.11;59.42;101027.97;1085806;54;19950;-78
2022/07/08 03:18:26;;;;;;;;;;;;;;;15.17;59.04;101028.41;1086118;54;19947;-79
2022/07/08 03:19:27;;;;;;;;;;;;;;;15.17;59.08;101031.91;1086396;54;19935;-79
2022/07/08 03:20:30;;;;;;;;;;;;;;;15.19;58.88;101029.09;1087112;39;20391;-80
2022/07/08 03:21:32;;;;;;;;;;;;;;;15.21;58.88;101035.19;1086806;54;19946;-79
2022/07/08 03:22:35;;;;;;;;;;;;;;;15.24;58.73;101034.88;1086737;54;19950;-79
2022/07/08 03:23:38;;;;;;;;;;;;;;;15.22;59.09;101036.84;1086628;54;19946;-78
2022/07/08 03:24:41;;;;;;;;;;;;;;;15.24;58.76;101033.03;1086904;54;19938;-79
2022/07/08 03:25:42;;;;;;;;;;;;;;;15.07;59.54;101032.00;1087111;54;19939;-79
2022/07/08 03:26:49;;;;;;;;;;;;;;;14.86;60.38;101039.47;1087105;54;19939;-80
2022/07/08 03:27:50;;;;;;;;;;;;;;;14.76;60.43;101047.59;1087729;39;20415;-79
2022/07/08 03:28:54;;;;;;;;;;;;;;;14.75;60.54;101049.41;1087499;54;20022;-78
2022/07/08 03:29:55;;;;;;;;;;;;;;;14.81;60.05;101046.16;1087426;54;19994;-80
2022/07/08 03:30:59;;;;;;;;;;;;;;;14.86;60.14;101050.22;1088704;54;19931;-81
2022/07/08 03:32:00;;;;;;;;;;;;;;;14.80;60.38;101054.34;1088752;54;19967;-79
2022/07/08 03:33:04;;;;;;;;;;;;;;;14.70;60.30;101048.16;1088666;54;19941;-79
2022/07/08 03:34:13;;;;;;;;;;;;;;;14.62;60.71;101049.72;1088492;54;19946;-80
2022/07/08 03:35:17;;;;;;;;;;;;;;;14.54;61.24;101056.84;1088519;54;19954;-82
2022/07/08 03:36:22;;;;;;;;;;;;;;;14.49;61.50;101052.75;1088701;54;19934;-78
2022/07/08 03:37:23;;;;;;;;;;;;;;;14.53;61.17;101055.97;1088715;54;20634;-81
2022/07/08 03:38:27;;;;;;;;;;;;;;;14.52;61.55;101059.66;1088671;54;19942;-79
2022/07/08 03:39:28;;;;;;;;;;;;;;;14.50;61.59;101054.44;1092069;39;20478;-79
2022/07/08 03:41:51;;;;;;;;;;;;;;;14.57;61.25;101062.78;1088700;54;20555;-80
2022/07/08 03:42:52;;;;;;;;;;;;;;;14.46;61.76;101065.63;1088659;54;19934;-81
2022/07/08 03:43:56;;;;;;;;;;;;;;;14.37;61.92;101072.72;1088707;54;19926;-80
2022/07/08 03:44:57;;;;;;;;;;;;;;;14.32;62.33;101064.25;1088747;54;19935;-81
2022/07/08 03:46:03;;;;;;;;;;;;;;;14.22;62.86;101077.69;1088679;54;20566;-81
2022/07/08 03:47:05;;;;;;;;;;;;;;;14.15;63.15;101077.44;1088708;54;19942;-82
2022/07/08 03:48:08;;;;;;;;;;;;;;;14.14;63.23;101075.75;1088658;54;19949;-81
2022/07/08 03:49:12;;;;;;;;;;;;;;;14.11;63.38;101078.72;1088720;54;19943;-81
2022/07/08 03:50:13;;;;;;;;;;;;;;;14.06;63.41;101072.94;1088640;54;19943;-81
2022/07/08 03:51:18;;;;;;;;;;;;;;;14.02;63.18;101082.25;1092390;39;20494;-80
2022/07/08 03:52:19;;;;;;;;;;;;;;;13.99;63.61;101083.41;1088299;54;19938;-81
2022/07/08 03:53:22;;;;;;;;;;;;;;;13.99;63.54;101071.78;1088473;54;19946;-82
2022/07/08 03:54:26;;;;;;;;;;;;;;;13.94;63.39;101074.88;1088601;54;19949;-81
2022/07/08 03:55:28;;;;;;;;;;;;;;;13.89;63.30;101083.38;1088615;54;19935;-81
2022/07/08 03:56:33;;;;;;;;;;;;;;;13.94;63.59;101088.31;1088736;54;19986;-82
2022/07/08 03:57:37;;;;;;;;;;;;;;;13.94;63.31;101085.63;1088687;54;19945;-82
2022/07/08 03:58:43;;;;;;;;;;;;;;;13.94;63.49;101088.31;1098414;39;20473;-81
2022/07/08 03:59:45;;;;;;;;;;;;;;;13.97;63.36;101087.22;1088772;54;19983;-82
2022/07/08 04:00:49;;;;;;;;;;;;;;;14.08;63.13;101075.47;1088713;54;19974;-82
2022/07/08 04:01:50;;;;;;;;;;;;;;;14.13;62.89;101084.81;1088637;54;19938;-81
2022/07/08 04:02:54;;;;;;;;;;;;;;;14.22;62.42;101082.25;1088719;54;19943;-82
2022/07/08 04:03:58;;;;;;;;;;;;;;;14.30;62.13;101085.06;1099356;39;20475;-81
2022/07/08 04:05:00;;;;;;;;;;;;;;;14.35;61.92;101083.63;1088653;54;20563;-82
2022/07/08 04:06:04;;;;;;;;;;;;;;;14.44;61.64;101081.94;1088755;54;19942;-82
2022/07/08 04:07:05;;;;;;;;;;;;;;;14.51;61.17;101088.41;1088715;54;19949;-82
2022/07/08 04:08:11;;;;;;;;;;;;;;;14.31;61.94;101089.44;1088734;54;19935;-84
2022/07/08 04:09:15;;;;;;;;;;;;;;;14.08;62.60;101095.13;1090016;46;19943;-83
2022/07/08 04:10:17;;;;;;;;;;;;;;;14.05;62.85;101098.09;1088429;54;19999;-83
2022/07/08 04:11:21;;;;;;;;;;;;;;;14.01;63.01;101094.00;1088563;54;19947;-83
2022/07/08 04:12:22;;;;;;;;;;;;;;;13.95;63.12;101092.72;1102498;39;20554;-81
2022/07/08 04:13:29;;;;;;;;;;;;;;;13.91;63.46;101103.91;1088091;54;19947;-80
2022/07/08 04:14:31;;;;;;;;;;;;;;;13.81;63.74;101096.69;1088165;54;19950;-80
2022/07/08 04:15:34;;;;;;;;;;;;;;;13.81;63.75;101095.84;1088214;54;19950;-80
2022/07/08 04:16:36;;;;;;;;;;;;;;;13.79;63.54;101098.66;1087715;54;19962;-81
2022/07/08 04:17:40;;;;;;;;;;;;;;;13.83;63.42;101100.06;1088170;39;20912;-82
2022/07/08 04:18:44;;;;;;;;;;;;;;;13.87;63.68;101104.19;1088595;54;20027;-81
2022/07/08 04:19:45;;;;;;;;;;;;;;;13.92;63.46;101097.53;1088600;54;19941;-81
2022/07/08 04:20:49;;;;;;;;;;;;;;;13.84;63.50;101098.22;1089627;39;20547;-83
2022/07/08 04:21:51;;;;;;;;;;;;;;;13.86;64.13;101107.88;1088633;54;19949;-82
2022/07/08 04:22:55;;;;;;;;;;;;;;;13.83;64.04;101097.38;1088681;54;19935;-84
2022/07/08 04:23:58;;;;;;;;;;;;;;;13.88;64.01;101095.16;1088690;54;19943;-81
2022/07/08 04:25:03;;;;;;;;;;;;;;;13.93;63.67;101104.59;1088664;54;20589;-81
2022/07/08 04:26:07;;;;;;;;;;;;;;;13.96;63.64;101102.47;1088712;54;19934;-83
2022/07/08 04:27:08;;;;;;;;;;;;;;;13.92;63.52;101102.91;1088561;54;19927;-82
2022/07/08 04:28:12;;;;;;;;;;;;;;;13.89;63.82;101104.88;1088458;54;20460;-82
2022/07/08 04:29:16;;;;;;;;;;;;;;;13.84;63.88;101101.78;1088661;54;19951;-82
2022/07/08 04:30:20;;;;;;;;;;;;;;;13.82;63.93;101105.59;1088723;54;19998;-82
2022/07/08 04:31:22;;;;;;;;;;;;;;;13.75;64.27;101105.31;1088621;54;19942;-83
2022/07/08 04:32:26;;;;;;;;;;;;;;;13.74;64.02;101103.59;1088748;54;19922;-82
2022/07/08 04:33:28;;;;;;;;;;;;;;;13.78;64.22;101102.34;1088739;54;19931;-83
2022/07/08 04:34:38;;;;;;;;;;;;;;;13.83;64.14;101105.44;1088669;54;19950;-83
2022/07/08 04:35:42;;;;;;;;;;;;;;;13.88;63.93;101105.91;1088721;54;19934;-81
2022/07/08 04:36:45;;;;;;;;;;;;;;;13.87;63.60;101103.31;1088640;54;19939;-82
2022/07/08 04:37:49;;;;;;;;;;;;;;;13.91;63.47;101101.22;1088655;54;19939;-82
2022/07/08 04:42:29;;;;;;;;;;;;;;;14.24;62.38;101096.41;1088341;54;19927;-83
2022/07/08 04:43:31;;;;;;;;;;;;;;;14.22;62.53;101109.97;1088383;54;19927;-82
2022/07/08 04:44:37;;;;;;;;;;;;;;;14.32;62.05;101100.06;1088176;54;19950;-83
2022/07/08 04:45:39;;;;;;;;;;;;;;;14.38;62.08;101104.00;1088097;54;19975;-81
2022/07/08 04:46:42;;;;;;;;;;;;;;;14.33;62.19;101103.59;1088070;54;20024;-81
2022/07/08 04:47:46;;;;;;;;;;;;;;;14.30;62.36;101104.75;1088262;54;19935;-82
2022/07/08 04:48:50;;;;;;;;;;;;;;;14.34;61.82;101111.53;1088633;54;19970;-82
2022/07/08 04:51:25;;;;;;;;;;;;;;;14.35;62.04;101099.78;1088472;54;20014;-81
2022/07/08 05:20:03;;;;;;;;;;;;;;;14.27;63.52;101128.38;1088263;54;19942;-82
2022/07/08 05:21:05;;;;;;;;;;;;;;;14.33;63.13;101117.06;1088275;54;19931;-81
2022/07/08 05:22:15;;;;;;;;;;;;;;;14.33;63.25;101114.38;1088547;54;19983;-81
2022/07/08 05:23:17;;;;;;;;;;;;;;;14.23;63.59;101118.91;1088593;54;19938;-81
2022/07/08 05:24:29;;;;;;;;;;;;;;;14.12;63.67;101120.75;1088637;54;19935;-81
2022/07/08 05:25:32;;;;;;;;;;;;;;;14.10;63.72;101122.72;1091726;46;19946;-80
2022/07/08 05:26:40;;;;;;;;;;;;;;;14.18;63.88;101124.72;1096353;39;20702;-82
2022/07/08 05:27:45;;;;;;;;;;;;;;;14.22;63.55;101120.72;1088495;54;19946;-80
2022/07/08 05:28:49;;;;;;;;;;;;;;;14.31;63.25;101122.56;1088630;54;19930;-82
2022/07/08 05:29:52;;;;;;;;;;;;;;;14.41;62.92;101119.88;1088719;54;19934;-81
2022/07/08 05:30:56;;;;;;;;;;;;;;;14.40;62.70;101126.25;1088649;54;19934;-82
2022/07/08 05:31:57;;;;;;;;;;;;;;;14.48;62.77;101125.53;1088600;54;19950;-83
2022/07/08 05:33:01;;;;;;;;;;;;;;;14.58;62.37;101120.13;1088630;54;19933;-80
2022/07/08 05:34:03;;;;;;;;;;;;;;;14.67;62.25;101119.28;1099519;39;20514;-82
2022/07/08 05:35:10;;;;;;;;;;;;;;;14.74;61.79;101120.38;1095639;39;20525;-81
2022/07/08 05:36:12;;;;;;;;;;;;;;;14.88;61.67;101118.22;1088759;54;19923;-81
2022/07/08 05:40:53;;;;;;;;;;;;;;;15.10;59.76;101115.19;1088671;54;20518;-81
2022/07/08 05:42:02;;;;;;;;;;;;;;;15.01;59.48;101121.47;1091614;46;19926;-82
2022/07/08 05:43:19;;;;;;;;;;;;;;;15.09;59.61;101128.78;1090059;46;19939;-81
2022/07/08 05:44:21;;;;;;;;;;;;;;;15.21;59.46;101129.47;1090826;46;19939;-81
2022/07/08 05:56:16;;;;;;;;;;;;;;;15.55;57.49;101134.22;1088099;54;19943;-79
2022/07/08 05:57:55;;;;;;;;;;;;;;;15.59;57.31;101127.53;1088082;54;19943;-78
2022/07/08 06:03:55;;;;;;;;;;;;;;;15.68;57.46;101126.63;1088108;54;19931;-78
2022/07/08 06:04:58;;;;;;;;;;;;;;;15.75;57.56;101130.41;1088075;54;20006;-80
2022/07/08 06:06:02;;;;;;;;;;;;;;;15.76;57.53;101133.94;1088187;54;19937;-81
2022/07/08 06:07:07;;;;;;;;;;;;;;;15.73;57.85;101131.53;1088244;54;19942;-81
2022/07/08 06:08:14;;;;;;;;;;;;;;;15.72;57.67;101140.66;1088265;54;19942;-81
2022/07/08 06:09:23;;;;;;;;;;;;;;;15.75;57.69;101135.81;1088304;54;19954;-81
2022/07/08 06:10:27;;;;;;;;;;;;;;;15.75;57.99;101141.19;1088065;54;19942;-79
2022/07/08 06:11:45;;;;;;;;;;;;;;;15.80;58.20;101142.56;1088268;54;19927;-79
2022/07/08 06:14:29;;;;;;;;;;;;;;;15.98;57.77;101139.94;1087988;54;19945;-80
2022/07/08 06:15:40;;;;;;;;;;;;;;;16.03;57.71;101141.16;1087839;54;19945;-79
2022/07/08 06:16:42;;;;;;;;;;;;;;;15.99;57.83;101150.56;1088757;46;19950;-78
2022/07/08 06:17:46;;;;;;;;;;;;;;;15.99;57.41;101141.63;1088014;54;19949;-78
2022/07/08 06:18:48;;;;;;;;;;;;;;;16.05;57.54;101141.88;1088090;54;19943;-79
2022/07/08 07:13:19;;;;;;;;;;;;;;;17.53;44.31;101162.75;1088031;54;19943;-80
2022/07/08 07:14:21;;;;;;;;;;;;;;;17.64;44.84;101163.47;1087580;54;19950;-79
2022/07/08 07:15:24;;;;;;;;;;;;;;;17.75;45.12;101160.47;1087440;54;19942;-77
2022/07/08 07:16:26;;;;;;;;;;;;;;;17.94;44.92;101159.31;1088078;54;19962;-78
2022/07/08 07:17:29;;;;;;;;;;;;;;;17.94;44.21;101159.31;1088011;54;19954;-78
2022/07/08 07:18:30;;;;;;;;;;;;;;;18.05;44.46;101167.16;1088030;54;19949;-77